Goldfield, Nevada Weather observations

Data are for observation ending at time listed.
 Day   Time    Ave.   Ave.  Ave.  Vector   Max.   Stn.    Total    Solar   Ave.  
  of    of     Air    Rel.  Wind   Wind    Wind   Baro.  Precip.   Rad.    Soil  
Year   Day     Temp.  Hum.  Speed  Dir.    Gust   Pres.                    Temp. 
2014   (PST)    F      %     mph   deg.    mph     mb.     in.     W/m2     F   
------------------------------------------------------------------------------
 210    3:00   59.2    92    2.8   359      4.9   835.0    0.00       0    72.3
 210    3:10   59.2    92    1.4   344      3.6   835.1    0.00       0    72.2
 210    3:20   59.3    93    0.2   270      1.5   835.0    0.00       0    72.3
 210    3:30   59.2    92    0.5    13      2.6   835.0    0.00       0    72.3
 210    3:40   59.2    92    1.0   276      2.8   835.0    0.00       0    72.0
 210    3:50   59.2    93    0.6   253      1.6   834.9    0.00       0    72.1
 210    4:00   59.2    94    0.4   228      1.3   834.8    0.00       0    72.1
 210    4:10   59.1    94    0.7    78      1.7   834.7    0.00       0    71.9
 210    4:20   59.2    93    1.7   115      2.7   834.6    0.00       1    71.9
 210    4:30   59.2    92    1.8   105      2.9   834.6    0.00       1    72.0
 210    4:40   59.4    92    1.9   108      2.9   834.6    0.00       1    71.9
 210    4:50   59.5    92    2.2    98      3.8   834.5    0.00       2    71.9
 210    5:00   59.5    90    2.7    88      3.8   834.4    0.00       4    71.8
 210    5:10   59.8    90    1.9    93      2.5   834.4    0.00       4    71.7
 210    5:20   59.7    89    1.0   113      2.1   834.4    0.00       5    71.6
 210    5:30   59.8    89    0.1   115      0.7   834.4    0.00       9    71.6
 210    5:40   60.0    89    0.4   113      1.1   834.4    0.00      17    71.6
 210    5:50   60.2    88    1.5   120      2.4   834.4    0.00      38    71.5
 210    6:00   60.6    89    1.4   109      2.0   834.4    0.00      57    71.3
 210    6:10   62.2    84    1.3    92      2.0   834.4    0.00     143    71.5
 210    6:20   62.7    78    1.4    19      2.4   834.4    0.00      93    71.3
 210    6:30   62.3    80    2.2   324      3.8   834.5    0.00     121    71.4
 210    6:40   62.7    80    2.0   327      3.7   834.7    0.00     202    71.3
 210    6:50   65.5    75    0.8    17      2.1   834.7    0.00     444    71.2
 210    7:00   66.5    71    1.3    34      2.8   834.7    0.00     149    71.5
 210    7:10   64.3    75    2.4   315      4.4   834.8    0.00     126    71.4
 210    7:20   63.6    76    4.5   313      6.4   834.9    0.00     120    71.7
 210    7:30   62.8    78    4.7   319      6.6   835.0    0.00     109    71.5
 210    7:40   62.7    79    4.0   324      7.2   835.0    0.00     137    71.6
 210    7:50   62.9    79    3.4   337      6.4   835.0    0.00     159    71.7
 210    8:00   62.8    81    5.5   317      8.1   835.0    0.00     168    71.8
 210    8:10   62.9    84    6.6   313      8.7   835.0    0.00     185    71.8
 210    8:20   62.8    83    6.2   318      8.6   835.0    0.00     199    71.7
 210    8:30   62.7    80    6.2   319      7.8   834.9    0.00     208    71.8
 210    8:40   63.1    78    6.2   315      8.0   834.9    0.00     269    72.0
 210    8:50   63.6    74    5.5   313      7.6   835.0    0.00     263    71.9
 210    9:00   64.4    73    4.2   308      6.9   835.0    0.00     255    71.9
 210    9:10   64.6    73    3.2   310      5.6   835.1    0.00     216    71.9
 210    9:20   64.7    71    3.0   325      5.0   835.1    0.00     207    72.0
 210    9:30   65.0    71    2.5   331      5.4   835.1    0.00     234    72.1
 210    9:40   65.7    69    1.9   341      3.5   835.2    0.00     278    72.2
 210    9:50   66.0    69    2.3    11      4.7   835.2    0.00     288    72.3
 210   10:00   67.5    65    1.6   307      3.5   835.2    0.00     520    72.4
 210   10:10   69.4    62    2.5   312      5.5   835.1    0.00     663    72.5
 210   10:20   69.3    63    3.6   311      6.3   835.0    0.00     498    72.6
 210   10:30   69.5    63    3.3   310      5.3   835.0    0.00     413    72.7
 210   10:40   69.5    62    3.5   313      5.8   834.9    0.00     445    73.0
 210   10:50   70.1    61    3.0   330      5.6   834.8    0.00     448    73.2
 210   11:00   70.3    60    3.4   314      5.4   834.8    0.00     292    73.3
 210   11:10   70.2    60    2.9   325      5.7   834.7    0.00     287    73.7
 210   11:20   70.7    59    3.6   324      6.1   834.7    0.00     415    73.7
 210   11:30   71.6    56    2.5   322      5.2   834.6    0.00     436    74.0
 210   11:40   72.8    53    2.5   321      5.1   834.6    0.00     455    74.2
 210   11:50   74.0    47    4.9   311     10.7   834.5    0.00     590    74.2
 210   12:00   75.4    44    6.8   311     10.3   834.3    0.00     731    74.3
 210   12:10   75.8    38    7.7   314     12.2   834.2    0.00     865    74.5
 210   12:20   76.9    36    9.5   317     14.9   834.1    0.00    1005    74.8
 210   12:30   77.1    35    7.9   322     14.3   834.0    0.00     989    75.0
 210   12:40   78.1    35    9.5   308     15.1   833.8    0.00     980    75.3
 210   12:50   78.0    33    9.3   320     18.0   833.7    0.00     983    76.0
 210   13:00   78.9    32    9.1   298     15.4   833.7    0.00     947    76.1
 210   13:10   79.1    32    9.2   325     15.3   833.5    0.00     991    76.5
 210   13:20   80.2    32   10.4   305     17.2   833.5    0.00    1068    76.7
 210   13:30   79.8    32    9.8   292     14.9   833.5    0.00     467    76.9
 210   13:40   79.3    32    8.0   292     13.8   833.4    0.00     485    77.1
 210   13:50   78.8    32    7.5   284     12.8   833.4    0.00     415    77.3
 210   14:00   78.3    32    7.4   303     13.5   833.5    0.00     404    77.5
 210   14:10   79.5    30    8.9   304     15.3   833.4    0.00     884    77.6
 210   14:20   79.4    31    7.4   310     12.8   833.2    0.00     849    77.6
 210   14:30   80.8    31    6.9   305     12.6   833.1    0.00     805    77.7
 210   14:40   80.3    32    8.1   305     13.6   832.9    0.00     776    77.7
 210   14:50   80.4    31    7.0   307     13.7   832.9    0.00     749    77.9
 210   15:00   81.4    31    4.2   305      9.8   832.7    0.00     746    77.9
 210   15:10   82.8    30   10.1   295     15.0   832.6    0.00     804    78.2
 210   15:20   82.8    30    7.8   298     14.0   832.5    0.00     772    78.3
 210   15:30   81.6    30    9.3   310     15.1   832.4    0.00     649    78.5
 210   15:40   81.9    30    7.7   294     14.5   832.1    0.00     609    78.5
 210   15:50   81.9    30    6.7   304     14.2   832.0    0.00     574    78.6
 210   16:00   82.0    31    8.6   296     14.4   832.0    0.00     539    78.7
 210   16:10   82.7    30    6.8   302     14.5   832.0    0.00     501    78.4
 210   16:20   81.9    30    5.8   314     14.6   831.8    0.00     452    78.3
 210   16:30   81.8    29    6.9   321     12.6   831.7    0.00     444    78.3
 210   16:40   81.7    29    7.7   322     12.6   831.6    0.00     425    78.2
 210   16:50   82.0    29    8.9   304     13.7   831.6    0.00     328    78.1
 210   17:00   81.9    29    7.0   326     11.8   831.5    0.00     253    78.0
 210   17:10   82.5    28    5.5   308     11.4   831.5    0.00     271    77.9
 210   17:20   83.3    28    5.7   298     11.6   831.4    0.00     273    77.9
 210   17:30   83.2    28    5.2   305     10.2   831.3    0.00     253    77.5
 210   17:40   83.6    27    6.6   307     12.5   831.3    0.00     212    77.6
 210   17:50   84.0    26    6.7   297     10.8   831.2    0.00     201    77.6
 210   18:00   83.7    27    5.3   297      8.1   831.2    0.00     148    77.7
 210   18:10   82.8    28    4.0   269      7.3   831.2    0.00      99    77.5
 210   18:20   81.9    29    4.2   277      6.5   831.1    0.00      79    77.5
 210   18:30   80.6    30    3.7   281      5.9   831.1    0.00      70    77.4
 210   18:40   80.1    30    3.5   310      6.6   831.2    0.00      35    77.3
 210   18:50   79.9    30    5.4   308      8.7   831.1    0.00      20    77.1
 210   19:00   78.8    32    3.7   291      5.6   831.3    0.00      11    77.1
 210   19:10   77.6    34    1.8   262      3.7   831.3    0.00       4    77.1
 210   19:20   76.7    36    1.0   281      3.1   831.4    0.00       1    76.9
 210   19:30   75.9    37    0.9   230      1.8   831.4    0.00       0    76.8
 210   19:40   75.1    39    1.9   208      2.7   831.5    0.00       0    76.8
 210   19:50   74.4    40    1.8   181      3.4   831.6    0.00       0    76.7
 210   20:00   74.0    42    1.3   136      2.2   831.8    0.00       0    76.6
 210   20:10   73.5    41    2.2   180      3.3   831.9    0.00       0    76.4
 210   20:20   73.3    42    2.7   150      4.9   832.0    0.00       0    76.3
 210   20:30   73.4    40    2.2   192      3.3   832.1    0.00       0    76.2
 210   20:40   73.0    41    2.9   196      3.7   832.1    0.00       0    76.1
 210   20:50   72.7    41    3.0   199      3.9   832.2    0.00       0    76.0
 210   21:00   72.8    40    3.3   186      4.0   832.3    0.00       0    75.9
 210   21:10   72.9    41    2.0   174      3.5   832.3    0.00       0    75.8
 210   21:20   72.2    42    0.8   188      2.1   832.4    0.00       0    75.7
 210   21:30   71.5    42    1.8   214      3.7   832.4    0.00       0    75.6
 210   21:40   71.3    42    1.1     7      2.9   832.5    0.00       0    75.5
 210   21:50   70.9    44    1.2    61      2.0   832.5    0.00       0    75.4
 210   22:00   70.2    46    1.4   129      2.1   832.5    0.00       0    75.2
 210   22:10   70.4    43    1.0   139      2.3   832.6    0.00       0    75.2
 210   22:20   70.6    44    0.3   193      0.9   832.6    0.00       0    75.0
 210   22:30   70.4    44    0.3   279      1.0   832.6    0.00       0    74.9
 210   22:40   68.9    50    2.6    13      5.6   832.8    0.00       0    74.8
 210   22:50   67.7    52    2.7   198      6.0   832.8    0.00       0    74.7
 210   23:00   67.7    51    1.7   119      2.2   832.9    0.00       0    74.7
 210   23:10   68.5    48    1.1   220      3.1   833.0    0.00       0    74.5
 210   23:20   68.7    48    2.6   230      5.2   833.1    0.00       0    74.3
 210   23:30   68.8    47    3.4   270      7.1   833.2    0.00       0    74.3
 210   23:40   68.8    49    4.0   284      5.6   833.2    0.00       0    74.1
 210   23:50   68.6    49    2.7   320      4.7   833.3    0.00       0    74.0
 211    0:00   69.0    48    4.6   303      8.3   833.3    0.00       0    73.9
 211    0:10   68.3    50    7.0   298      9.3   833.3    0.00       0    73.7
 211    0:20   68.0    50    4.1   302      6.9   833.3    0.00       0    73.7
 211    0:30   67.5    52    4.1   285      5.6   833.3    0.00       0    73.6
 211    0:40   66.8    52    4.6   296      6.6   833.2    0.00       0    73.5
 211    0:50   67.4    50    3.4   306      6.5   833.1    0.00       0    73.2
 211    1:00   67.9    49    3.0   279      4.2   833.0    0.00       0    73.2
 211    1:10   67.6    49    3.9   279      7.2   833.0    0.00       0    73.0
 211    1:20   68.1    49    3.7   304      8.0   833.0    0.00       0    73.0
 211    1:30   68.8    46    4.5   300      6.9   832.9    0.00       0    72.9
 211    1:40   68.0    48    3.6   266      6.1   832.9    0.00       0    72.7
 211    1:50   68.0    48    3.3   281      4.9   832.9    0.00       0    72.7
 211    2:00   67.0    50    1.1   305      3.7   833.0    0.00       0    72.5
 211    2:10   66.3    52    1.4   143      2.5   832.8    0.00       0    72.4
 211    2:20   65.9    53    0.9   276      2.3   832.8    0.00       0    72.4
 211    2:30   65.1    55    1.0   215      2.5   832.8    0.00       0    72.4
 211    2:40   65.0    55    0.8   325      2.4   832.7    0.00       0    72.3
 211    2:50   64.6    57    0.9     2      2.3   832.8    0.00       0    72.3

Return to Goldfield, Nevada graphs page.


Western Regional Climate Center,wrcc@dri.edu